createdAt,value
2019-02-24T00:00:48.768Z,36.08
2019-02-24T00:01:48.730Z,36.22
2019-02-24T00:02:48.718Z,36.94
2019-02-24T00:03:48.986Z,36.2
2019-02-24T00:04:48.965Z,36.4
2019-02-24T00:05:48.709Z,36.39
2019-02-24T00:06:49.125Z,36.55
2019-02-24T00:07:48.745Z,36.43
2019-02-24T00:08:49.102Z,36.52
2019-02-24T00:09:48.998Z,36.7
2019-02-24T00:10:49.025Z,36.71
2019-02-24T00:11:49.377Z,36.64
2019-02-24T00:12:48.763Z,36.26
2019-02-24T00:13:48.715Z,36.69
2019-02-24T00:14:50.495Z,36.66
2019-02-24T00:15:49.043Z,36.89
2019-02-24T00:16:50.506Z,36.78
2019-02-24T00:17:48.469Z,36.57
2019-02-24T00:18:48.730Z,36.72
2019-02-24T00:19:48.695Z,37.13
2019-02-24T00:20:48.729Z,37.23
2019-02-24T00:21:49.006Z,37.01
2019-02-24T00:22:48.719Z,37.23
2019-02-24T00:23:48.889Z,37.18
2019-02-24T00:24:48.778Z,37.2
2019-02-24T00:25:48.892Z,37.11
2019-02-24T00:26:49.101Z,37.18
2019-02-24T00:27:48.690Z,37.36
2019-02-24T00:28:49.013Z,37.84
2019-02-24T00:29:48.769Z,37.49
2019-02-24T00:30:49.031Z,37.45
2019-02-24T00:31:48.723Z,37.4
2019-02-24T00:32:48.738Z,37.76
2019-02-24T00:33:48.759Z,38.12
2019-02-24T00:34:48.996Z,37.72
2019-02-24T00:35:48.975Z,37.79
2019-02-24T00:36:49.036Z,38.07
2019-02-24T00:37:48.884Z,38.36
2019-02-24T00:38:50.449Z,38.5
2019-02-24T00:39:49.912Z,38.26
2019-02-24T00:40:48.689Z,38.62
2019-02-24T00:41:48.701Z,38.64
2019-02-24T00:42:49.010Z,38.67
2019-02-24T00:43:48.678Z,39.09
2019-02-24T00:44:48.699Z,39.1
2019-02-24T00:45:48.836Z,38.97
2019-02-24T00:46:49.245Z,38.99
2019-02-24T00:47:49.117Z,38.92
2019-02-24T00:48:48.852Z,38.92
2019-02-24T00:49:48.605Z,39.14
2019-02-24T00:50:50.424Z,39.3
2019-02-24T00:51:48.629Z,39.21
2019-02-24T00:52:48.868Z,39.11
2019-02-24T00:53:48.988Z,39.13
2019-02-24T00:54:48.876Z,39.3
2019-02-24T00:55:49.036Z,39.12
2019-02-24T00:56:48.576Z,39.23
2019-02-24T00:57:48.717Z,38.99
2019-02-24T00:58:48.558Z,39.51
2019-02-24T00:59:48.679Z,39.39
2019-02-24T01:00:49.238Z,39.48
2019-02-24T01:01:48.770Z,39.67
2019-02-24T01:02:48.588Z,39.55
2019-02-24T01:03:50.422Z,39.82
2019-02-24T01:04:48.991Z,39.73
2019-02-24T01:05:48.766Z,39.81
2019-02-24T01:06:48.851Z,39.64
2019-02-24T01:07:48.644Z,39.78
2019-02-24T01:08:48.708Z,39.8
2019-02-24T01:09:48.533Z,39.89
2019-02-24T01:10:48.639Z,40.21
2019-02-24T01:11:49.391Z,40.24
2019-02-24T01:12:48.793Z,40.31
2019-02-24T01:13:48.904Z,40.54
2019-02-24T01:14:48.642Z,40.66
2019-02-24T01:15:48.753Z,40.37
2019-02-24T01:16:49.182Z,40.44
2019-02-24T01:17:48.928Z,40.75
2019-02-24T01:18:49.088Z,40.84
2019-02-24T01:19:49.714Z,40.48
2019-02-24T01:20:48.556Z,40.88
2019-02-24T01:21:49.365Z,40.9
2019-02-24T01:22:49.481Z,40.62
2019-02-24T01:23:48.673Z,40.59
2019-02-24T01:24:50.383Z,40.6
2019-02-24T01:25:48.376Z,40.69
2019-02-24T01:26:48.372Z,40.74
2019-02-24T01:27:48.551Z,40.92
2019-02-24T01:28:48.555Z,41.08
2019-02-24T01:29:48.573Z,40.79
2019-02-24T01:30:48.993Z,41.05
2019-02-24T01:31:48.677Z,41.05
2019-02-24T01:32:48.681Z,41.29
2019-02-24T01:33:50.362Z,41.11
2019-02-24T01:34:49.081Z,41.33
2019-02-24T01:35:48.525Z,41.31
2019-02-24T01:36:48.601Z,41.19
2019-02-24T01:37:48.616Z,41.29
2019-02-24T01:38:48.613Z,41.11
2019-02-24T01:39:49.016Z,41.15
2019-02-24T01:40:48.882Z,41.43
2019-02-24T01:41:48.793Z,41.47
2019-02-24T01:42:48.660Z,41.41
2019-02-24T01:43:49.093Z,41.39
2019-02-24T01:44:50.414Z,41.5
2019-02-24T01:45:48.328Z,41.45
2019-02-24T01:46:48.332Z,41.55
2019-02-24T01:47:48.336Z,41.77
2019-02-24T01:48:48.326Z,41.67
2019-02-24T01:49:48.325Z,41.61
2019-02-24T01:50:48.545Z,41.82
2019-02-24T01:51:48.551Z,41.73
2019-02-24T01:52:48.763Z,41.72
2019-02-24T01:53:48.769Z,41.93
2019-02-24T01:54:48.480Z,41.94
2019-02-24T01:55:50.013Z,42
2019-02-24T01:56:48.798Z,42.06
2019-02-24T01:57:48.631Z,42.03
2019-02-24T01:58:50.332Z,42.06
2019-02-24T01:59:48.562Z,42.09
2019-02-24T02:00:48.463Z,42.26
2019-02-24T02:01:48.603Z,42.18
2019-02-24T02:02:48.577Z,41.94
2019-02-24T02:03:48.728Z,41.89
2019-02-24T02:04:49.419Z,41.93
2019-02-24T02:05:49.451Z,42.01
2019-02-24T02:06:48.651Z,42.01
2019-02-24T02:07:48.652Z,41.94
2019-02-24T02:08:48.659Z,41.44
2019-02-24T02:09:48.621Z,41.76
2019-02-24T02:10:48.578Z,41.48
2019-02-24T02:11:48.482Z,41.26
2019-02-24T02:12:48.565Z,41.19
2019-02-24T02:13:48.513Z,41.45
2019-02-24T02:14:48.460Z,41.61
2019-02-24T02:15:48.795Z,41.62
2019-02-24T02:16:48.595Z,41.09
2019-02-24T02:17:48.616Z,41.07
2019-02-24T02:18:48.506Z,40.95
2019-02-24T02:19:48.528Z,40.67
2019-02-24T02:20:48.548Z,40.62
2019-02-24T02:21:48.570Z,40.7
2019-02-24T02:22:48.536Z,40.79
2019-02-24T02:23:48.603Z,40.67
2019-02-24T02:24:49.369Z,40.7
2019-02-24T02:25:48.424Z,40.33
2019-02-24T02:26:49.791Z,40.65
2019-02-24T02:27:49.685Z,40.72
2019-02-24T02:28:48.784Z,40.85
2019-02-24T02:29:48.691Z,40.91
2019-02-24T02:30:48.545Z,40.92
2019-02-24T02:31:48.533Z,40.82
2019-02-24T02:32:50.546Z,40.88
2019-02-24T02:33:48.509Z,41.32
2019-02-24T02:34:48.412Z,41.54
2019-02-24T02:35:49.005Z,40.94
2019-02-24T02:36:48.620Z,40.76
2019-02-24T02:37:50.280Z,40.66
2019-02-24T02:38:48.524Z,40.22
2019-02-24T02:39:48.567Z,40.01
2019-02-24T02:40:48.674Z,40.28
2019-02-24T02:41:48.408Z,40.28
2019-02-24T02:42:48.883Z,40.17
2019-02-24T02:43:49.808Z,40.24
2019-02-24T02:44:48.439Z,40.32
2019-02-24T02:45:48.793Z,40.27
2019-02-24T02:46:48.459Z,40.3
2019-02-24T02:47:48.439Z,40.53
2019-02-24T02:48:49.387Z,40.59
2019-02-24T02:49:48.882Z,40.64
2019-02-24T02:50:48.457Z,40.98
2019-02-24T02:51:48.412Z,41.19
2019-02-24T02:52:48.515Z,41.33
2019-02-24T02:53:48.409Z,41.49
2019-02-24T02:54:48.653Z,41.44
2019-02-24T02:55:48.457Z,41.62
2019-02-24T02:56:48.489Z,42.02
2019-02-24T02:57:48.403Z,42.11
2019-02-24T02:58:54.902Z,42.05
2019-02-24T02:59:50.261Z,42.14
2019-02-24T03:00:48.694Z,42.18
2019-02-24T03:01:48.379Z,42.27
2019-02-24T03:02:48.434Z,42.23
2019-02-24T03:03:48.825Z,42.51
2019-02-24T03:04:48.609Z,42.7
2019-02-24T03:05:49.773Z,42.8
2019-02-24T03:06:48.482Z,42.87
2019-02-24T03:07:48.415Z,43.1
2019-02-24T03:08:48.836Z,43.1
2019-02-24T03:09:48.872Z,43.46
2019-02-24T03:10:49.065Z,43.61
2019-02-24T03:11:48.554Z,43.84
2019-02-24T03:12:48.341Z,43.79
2019-02-24T03:13:48.670Z,43.77
2019-02-24T03:14:48.413Z,44.13
2019-02-24T03:15:48.686Z,42.35
2019-02-24T03:16:48.722Z,42.41
2019-02-24T03:17:48.545Z,42.94
2019-02-24T03:18:48.420Z,43.24
2019-02-24T03:19:48.368Z,43.3
2019-02-24T03:20:48.620Z,43.46
2019-02-24T03:21:48.703Z,44.06
2019-02-24T03:22:48.621Z,43.71
2019-02-24T03:23:48.469Z,44.03
2019-02-24T03:24:48.758Z,43.89
2019-02-24T03:25:48.437Z,44.39
2019-02-24T03:26:48.694Z,44.16
2019-02-24T03:27:48.447Z,44.34
2019-02-24T03:28:48.520Z,44.12
2019-02-24T03:29:48.782Z,44.23
2019-02-24T03:30:48.838Z,44.32
2019-02-24T03:31:49.036Z,44.04
2019-02-24T03:32:48.326Z,43.91
2019-02-24T03:33:48.449Z,43.71
2019-02-24T03:34:48.377Z,43.28
2019-02-24T03:35:48.616Z,42.82
2019-02-24T03:36:48.678Z,43.04
2019-02-24T03:37:50.195Z,42.89
2019-02-24T03:38:48.624Z,42.89
2019-02-24T03:39:48.450Z,42.51
2019-02-24T03:40:48.483Z,42.35
2019-02-24T03:41:48.359Z,42.14
2019-02-24T03:42:48.416Z,41.85
2019-02-24T03:43:48.502Z,41.83
2019-02-24T03:44:48.374Z,41.99
2019-02-24T03:45:50.175Z,41.8
2019-02-24T03:46:49.273Z,41.95
2019-02-24T03:47:48.446Z,41.75
2019-02-24T03:48:48.363Z,42.59
2019-02-24T03:49:48.393Z,43.74
2019-02-24T03:50:50.159Z,43.77
2019-02-24T03:51:48.474Z,44.23
2019-02-24T03:52:49.094Z,43.96
2019-02-24T03:53:48.333Z,44.16
2019-02-24T03:54:48.291Z,44.33
2019-02-24T03:55:48.316Z,44.94
2019-02-24T03:56:48.413Z,44.97
2019-02-24T03:57:48.362Z,44.52
2019-02-24T03:58:48.576Z,44.73
2019-02-24T03:59:48.458Z,45
2019-02-24T04:00:48.380Z,44.89
2019-02-24T04:01:48.400Z,45.01
2019-02-24T04:02:48.435Z,44.37
2019-02-24T04:03:50.146Z,44.13
2019-02-24T04:04:48.806Z,43.68
2019-02-24T04:05:48.643Z,41.36
2019-02-24T04:06:48.323Z,41.45
2019-02-24T04:07:48.284Z,41.73
2019-02-24T04:08:48.313Z,40.68
2019-02-24T04:09:48.335Z,39.73
2019-02-24T04:10:48.450Z,41.05
2019-02-24T04:11:48.784Z,41.51
2019-02-24T04:12:48.341Z,41.17
2019-02-24T04:13:50.137Z,41.02
2019-02-24T04:14:49.149Z,41.13
2019-02-24T04:15:48.280Z,40.98
2019-02-24T04:16:48.466Z,40.73
2019-02-24T04:17:48.487Z,40.89
2019-02-24T04:18:48.261Z,41.15
2019-02-24T04:19:48.362Z,41.34
2019-02-24T04:20:48.598Z,39.45
2019-02-24T04:21:50.106Z,39.09
2019-02-24T04:22:48.832Z,40.06
2019-02-24T04:23:48.257Z,40.4
2019-02-24T04:24:50.109Z,40.45
2019-02-24T04:25:48.335Z,40.04
2019-02-24T04:26:48.649Z,40.49
2019-02-24T04:27:48.395Z,40.13
2019-02-24T04:28:48.330Z,39.54
2019-02-24T04:29:48.352Z,40.57
2019-02-24T04:30:48.339Z,39.32
2019-02-24T04:31:48.356Z,39.02
2019-02-24T04:32:48.267Z,38.39
2019-02-24T04:33:48.319Z,38.94
2019-02-24T04:34:48.538Z,39.12
2019-02-24T04:35:48.961Z,39.17
2019-02-24T04:36:48.886Z,39.49
2019-02-24T04:37:48.443Z,38.63
2019-02-24T04:38:49.181Z,38.21
2019-02-24T04:39:50.128Z,38.37
2019-02-24T04:40:48.646Z,38.86
2019-02-24T04:41:48.441Z,38.76
2019-02-24T04:42:48.455Z,38.76
2019-02-24T04:43:48.799Z,38.38
2019-02-24T04:44:48.319Z,38.5
2019-02-24T04:45:49.078Z,38.89
2019-02-24T04:46:48.321Z,39.41
2019-02-24T04:47:48.259Z,39.42
2019-02-24T04:48:48.316Z,38.54
2019-02-24T04:49:48.508Z,38.84
2019-02-24T04:50:48.208Z,40.75
2019-02-24T04:51:48.326Z,41.46
2019-02-24T04:52:48.635Z,41.64
2019-02-24T04:53:48.355Z,42.42
2019-02-24T04:54:48.361Z,42.92
2019-02-24T04:55:48.397Z,42.92
2019-02-24T04:56:48.461Z,43.2
2019-02-24T04:57:49.434Z,43.54
2019-02-24T04:58:48.212Z,43.89
2019-02-24T04:59:48.282Z,43.98
2019-02-24T05:00:49.351Z,44.15
2019-02-24T05:01:49.107Z,44.09
2019-02-24T05:02:48.360Z,43.98
2019-02-24T05:03:48.296Z,43.99
2019-02-24T05:04:48.493Z,44.03
2019-02-24T05:05:50.067Z,43.88
2019-02-24T05:06:50.066Z,43.9
2019-02-24T05:07:48.177Z,44.16
2019-02-24T05:08:48.235Z,44.59
2019-02-24T05:09:48.529Z,44.9
2019-02-24T05:10:48.539Z,44.43
2019-02-24T05:11:48.629Z,44.85
2019-02-24T05:12:48.541Z,45.18
2019-02-24T05:13:48.384Z,45.02
2019-02-24T05:14:48.572Z,45.25
2019-02-24T05:15:48.277Z,45.35
2019-02-24T05:16:49.090Z,45.78
2019-02-24T05:17:50.053Z,45.52
2019-02-24T05:18:48.302Z,45.24
2019-02-24T05:19:48.906Z,45.08
2019-02-24T05:20:48.315Z,45.28
2019-02-24T05:21:48.218Z,45.47
2019-02-24T05:22:48.208Z,45.38
2019-02-24T05:23:48.406Z,45.36
2019-02-24T05:24:48.886Z,45.46
2019-02-24T05:25:48.539Z,45.37
2019-02-24T05:26:48.593Z,45.43
2019-02-24T05:27:48.330Z,45.08
2019-02-24T05:28:48.210Z,44.44
2019-02-24T05:29:48.570Z,43.82
2019-02-24T05:30:48.205Z,44.07
2019-02-24T05:31:48.366Z,44.33
2019-02-24T05:32:50.034Z,44.52
2019-02-24T05:33:48.702Z,43.71
2019-02-24T05:34:48.272Z,43.56
2019-02-24T05:35:48.296Z,44.03
2019-02-24T05:36:49.633Z,43.77
2019-02-24T05:37:48.307Z,44.01
2019-02-24T05:38:48.342Z,44.05
2019-02-24T05:39:49.042Z,44.34
2019-02-24T05:40:49.342Z,43.76
2019-02-24T05:41:48.177Z,44.41
2019-02-24T05:42:48.188Z,44.33
2019-02-24T05:43:48.430Z,44.37
2019-02-24T05:44:48.758Z,45.14
2019-02-24T05:45:48.373Z,45.61
2019-02-24T05:46:48.347Z,46.86
2019-02-24T05:47:48.471Z,47.57
2019-02-24T05:48:48.255Z,46.81
2019-02-24T05:49:48.377Z,47.03
2019-02-24T05:50:48.379Z,46.85
2019-02-24T05:51:48.833Z,46.04
2019-02-24T05:52:48.146Z,46.27
2019-02-24T05:53:48.253Z,47.37
2019-02-24T05:54:48.135Z,48.17
2019-02-24T05:55:48.272Z,48.54
2019-02-24T05:56:48.431Z,50.1
2019-02-24T05:57:48.190Z,50.39
2019-02-24T05:58:48.299Z,49.96
2019-02-24T05:59:55.739Z,49.85
2019-02-24T06:00:48.439Z,49.85
2019-02-24T06:01:48.118Z,49.59
2019-02-24T06:02:49.132Z,49.3
2019-02-24T06:03:48.251Z,49.28
2019-02-24T06:04:48.082Z,48.49
2019-02-24T06:05:48.438Z,48.86
2019-02-24T06:06:48.299Z,48.89
2019-02-24T06:07:48.076Z,48.91
2019-02-24T06:08:48.280Z,49.57
2019-02-24T06:09:49.178Z,49.36
2019-02-24T06:10:48.095Z,49.46
2019-02-24T06:11:48.488Z,48.96
2019-02-24T06:12:48.518Z,48.88
2019-02-24T06:13:48.287Z,48.96
2019-02-24T06:14:48.430Z,48.91
2019-02-24T06:15:48.449Z,48.63
2019-02-24T06:16:48.358Z,48.98
2019-02-24T06:17:48.269Z,48.65
2019-02-24T06:18:48.377Z,48.81
2019-02-24T06:19:48.375Z,48.2
2019-02-24T06:20:48.193Z,48.24
2019-02-24T06:21:49.946Z,48.54
2019-02-24T06:22:48.143Z,48.73
2019-02-24T06:23:49.108Z,48.73
2019-02-24T06:24:49.944Z,48.53
2019-02-24T06:25:48.187Z,48.25
2019-02-24T06:26:48.237Z,47.68
2019-02-24T06:27:48.314Z,47.47
2019-02-24T06:28:48.342Z,46.29
2019-02-24T06:29:48.211Z,45.8
2019-02-24T06:30:48.399Z,45.1
2019-02-24T06:31:48.127Z,42.56
2019-02-24T06:32:48.352Z,41.99
2019-02-24T06:33:48.265Z,41.14
2019-02-24T06:34:48.426Z,41.22
2019-02-24T06:35:48.179Z,41.81
2019-02-24T06:36:48.498Z,42.02
2019-02-24T06:37:48.160Z,42.4
2019-02-24T06:38:48.104Z,42.47
2019-02-24T06:39:48.093Z,42.42
2019-02-24T06:40:48.207Z,41.78
2019-02-24T06:41:48.408Z,41.84
2019-02-24T06:42:48.110Z,42.36
2019-02-24T06:43:48.632Z,41.48
2019-02-24T06:44:48.923Z,42.18
2019-02-24T06:45:49.212Z,42.31
2019-02-24T06:46:49.943Z,42.09
2019-02-24T06:47:48.343Z,40.38
2019-02-24T06:48:49.922Z,40.67
2019-02-24T06:49:47.881Z,41.3
2019-02-24T06:50:47.872Z,41.84
2019-02-24T06:51:47.873Z,41.45
2019-02-24T06:52:48.075Z,41.29
2019-02-24T06:53:48.295Z,41.59
2019-02-24T06:54:48.178Z,41.22
2019-02-24T06:55:49.895Z,41.2
2019-02-24T06:56:48.317Z,38.92
2019-02-24T06:57:48.242Z,41.11
2019-02-24T06:58:48.063Z,41.59
2019-02-24T06:59:48.307Z,42.25
2019-02-24T07:00:48.864Z,41.11
2019-02-24T07:01:48.929Z,41.48
2019-02-24T07:02:48.178Z,39.32
2019-02-24T07:03:48.313Z,40.41
2019-02-24T07:04:48.192Z,41.17
2019-02-24T07:05:48.376Z,41.39
2019-02-24T07:06:48.676Z,41.13
2019-02-24T07:07:48.534Z,41.47
2019-02-24T07:08:48.865Z,41.29
2019-02-24T07:09:47.992Z,41.01
2019-02-24T07:10:48.323Z,41.21
2019-02-24T07:11:48.306Z,41.05
2019-02-24T07:12:48.303Z,41.23
2019-02-24T07:13:48.309Z,40.57
2019-02-24T07:14:48.232Z,40.14
2019-02-24T07:15:48.103Z,39.58
2019-02-24T07:16:48.345Z,39.64
2019-02-24T07:17:48.206Z,39.96
2019-02-24T07:18:49.180Z,39.66
2019-02-24T07:19:48.253Z,39.58
2019-02-24T07:20:48.854Z,39.87
2019-02-24T07:21:48.684Z,39.75
2019-02-24T07:22:48.077Z,39.8
2019-02-24T07:23:49.854Z,38.59
2019-02-24T07:24:48.090Z,38.7
2019-02-24T07:25:48.828Z,38.67
2019-02-24T07:26:47.964Z,38.69
2019-02-24T07:27:48.504Z,39.1
2019-02-24T07:28:49.827Z,38.77
2019-02-24T07:29:48.320Z,38.24
2019-02-24T07:30:48.094Z,37.67
2019-02-24T07:31:48.335Z,37.84
2019-02-24T07:32:48.763Z,37.97
2019-02-24T07:33:48.014Z,37.73
2019-02-24T07:34:48.155Z,38.52
2019-02-24T07:35:48.265Z,37.86
2019-02-24T07:36:48.162Z,37.87
2019-02-24T07:37:48.318Z,38.23
2019-02-24T07:38:48.265Z,38.11
2019-02-24T07:39:48.300Z,38.31
2019-02-24T07:40:48.383Z,38.45
2019-02-24T07:41:48.420Z,38.51
2019-02-24T07:42:48.462Z,38.42
2019-02-24T07:43:48.305Z,38.64
2019-02-24T07:44:48.206Z,38.37
2019-02-24T07:45:48.423Z,38.73
2019-02-24T07:46:48.316Z,38.85
2019-02-24T07:47:48.141Z,39.04
2019-02-24T07:48:47.925Z,39.41
2019-02-24T07:49:48.617Z,39.45
2019-02-24T07:50:47.981Z,38.87
2019-02-24T07:51:49.813Z,39.18
2019-02-24T07:52:49.807Z,38.78
2019-02-24T07:53:48.369Z,39.11
2019-02-24T07:54:49.786Z,39.12
2019-02-24T07:55:48.283Z,38.58
2019-02-24T07:56:48.012Z,39.13
2019-02-24T07:57:48.308Z,38.79
2019-02-24T07:58:48.307Z,38.91
2019-02-24T07:59:48.040Z,38.89
2019-02-24T08:00:48.445Z,38.95
2019-02-24T08:01:48.049Z,39.32
2019-02-24T08:02:47.983Z,39.38
2019-02-24T08:03:48.254Z,39.05
2019-02-24T08:04:48.154Z,38.95
2019-02-24T08:05:48.062Z,39.1
2019-02-24T08:06:48.157Z,39.06
2019-02-24T08:07:48.160Z,39.39
2019-02-24T08:08:48.516Z,38.8
2019-02-24T08:09:48.164Z,38.95
2019-02-24T08:10:48.379Z,39.04
2019-02-24T08:11:49.770Z,39.05
2019-02-24T08:12:48.767Z,38.95
2019-02-24T08:13:48.195Z,38.68
2019-02-24T08:14:48.306Z,39.05
2019-02-24T08:15:48.213Z,38.53
2019-02-24T08:16:48.232Z,38.58
2019-02-24T08:17:48.117Z,38.8
2019-02-24T08:18:52.168Z,38.98
2019-02-24T08:19:48.454Z,38.94
2019-02-24T08:20:48.449Z,38.48
2019-02-24T08:21:49.760Z,38.46
2019-02-24T08:22:48.154Z,38.95
2019-02-24T08:23:48.673Z,38.85
2019-02-24T08:24:47.967Z,38.84
2019-02-24T08:25:48.067Z,38.8
2019-02-24T08:26:48.279Z,39.22
2019-02-24T08:27:48.547Z,39.07
2019-02-24T08:28:47.886Z,38.34
2019-02-24T08:29:48.311Z,38.46
2019-02-24T08:30:48.317Z,38.41
2019-02-24T08:31:48.334Z,38.4
2019-02-24T08:32:48.731Z,37.98
2019-02-24T08:33:48.633Z,38.04
2019-02-24T08:34:47.867Z,38.19
2019-02-24T08:35:48.201Z,38.66
2019-02-24T08:36:48.772Z,38.68
2019-02-24T08:37:48.042Z,38.88
2019-02-24T08:38:48.059Z,38.32
2019-02-24T08:39:48.048Z,38.17
2019-02-24T08:40:47.981Z,38.33
2019-02-24T08:41:48.062Z,37.72
2019-02-24T08:42:48.287Z,37.71
2019-02-24T08:43:48.204Z,38.03
2019-02-24T08:44:48.625Z,37.2
2019-02-24T08:45:48.049Z,37.4
2019-02-24T08:46:48.110Z,37.31
2019-02-24T08:47:48.174Z,36.88
2019-02-24T08:48:48.331Z,36.28
2019-02-24T08:49:48.247Z,37.07
2019-02-24T08:50:48.151Z,37.25
2019-02-24T08:51:48.449Z,37.56
2019-02-24T08:52:47.930Z,36.69
2019-02-24T08:53:48.365Z,36.87
2019-02-24T08:54:48.790Z,36.65
2019-02-24T08:55:48.776Z,36.91
2019-02-24T08:56:48.181Z,36.52
2019-02-24T08:57:48.300Z,36.71
2019-02-24T08:58:48.816Z,36.19
2019-02-24T08:59:48.193Z,36.24
2019-02-24T09:00:51.570Z,35.93
2019-02-24T09:01:48.105Z,36.07
2019-02-24T09:02:48.714Z,36.44
2019-02-24T09:03:48.252Z,36.75
2019-02-24T09:04:48.226Z,37.23
2019-02-24T09:05:49.675Z,37.03
2019-02-24T09:06:47.853Z,36.6
2019-02-24T09:07:48.028Z,36.92
2019-02-24T09:08:48.051Z,35.77
2019-02-24T09:09:48.443Z,34.86
2019-02-24T09:10:48.162Z,35.47
2019-02-24T09:11:48.707Z,35.48
2019-02-24T09:12:49.036Z,35.2
2019-02-24T09:13:48.079Z,34.24
2019-02-24T09:14:47.988Z,35.14
2019-02-24T09:15:48.729Z,35.51
2019-02-24T09:16:48.730Z,35.47
2019-02-24T09:17:47.806Z,34.79
2019-02-24T09:18:47.827Z,35.28
2019-02-24T09:19:49.153Z,35.05
2019-02-24T09:20:48.065Z,34.54
2019-02-24T09:21:47.851Z,33.81
2019-02-24T09:22:48.202Z,33.95
2019-02-24T09:23:48.155Z,33.1
2019-02-24T09:24:48.685Z,33.35
2019-02-24T09:25:48.065Z,33.79
2019-02-24T09:26:48.073Z,33.74
2019-02-24T09:27:48.437Z,33.1
2019-02-24T09:28:47.982Z,33.39
2019-02-24T09:29:49.644Z,33.23
2019-02-24T09:30:47.833Z,33.35
2019-02-24T09:31:48.201Z,32.45
2019-02-24T09:32:48.011Z,32.12
2019-02-24T09:33:48.011Z,33.02
2019-02-24T09:34:48.121Z,32.97
2019-02-24T09:35:48.170Z,32.77
2019-02-24T09:36:47.982Z,32.84
2019-02-24T09:37:49.637Z,32.88
2019-02-24T09:38:48.366Z,33.21
2019-02-24T09:39:49.622Z,33.17
2019-02-24T09:40:48.097Z,32.6
2019-02-24T09:41:48.078Z,32.74
2019-02-24T09:42:47.750Z,32.53
2019-02-24T09:43:49.374Z,32.22
2019-02-24T09:44:47.981Z,32.33
2019-02-24T09:45:47.995Z,32.44
2019-02-24T09:46:48.116Z,31.92
2019-02-24T09:47:48.128Z,32.15
2019-02-24T09:48:48.001Z,32.14
2019-02-24T09:49:48.014Z,32.7
2019-02-24T09:50:48.124Z,30.69
2019-02-24T09:51:48.158Z,31.28
2019-02-24T09:52:47.816Z,30.75
2019-02-24T09:53:48.244Z,30.93
2019-02-24T09:54:48.105Z,31.45
2019-02-24T09:55:48.062Z,31.97
2019-02-24T09:56:48.275Z,31.62
2019-02-24T09:57:47.778Z,31.62
2019-02-24T09:58:48.830Z,31.25
2019-02-24T09:59:48.506Z,31.57
2019-02-24T10:00:47.768Z,31.47
2019-02-24T10:01:48.110Z,31.83
2019-02-24T10:02:48.228Z,31.21
2019-02-24T10:03:47.764Z,30.83
2019-02-24T10:04:47.779Z,31.07
2019-02-24T10:05:47.734Z,30.59
2019-02-24T10:06:48.042Z,30.73
2019-02-24T10:07:47.750Z,31.45
2019-02-24T10:08:47.943Z,30.68
2019-02-24T10:09:48.149Z,31.18
2019-02-24T10:10:48.174Z,31.46
2019-02-24T10:11:48.044Z,30.22
2019-02-24T10:12:47.788Z,30.28
2019-02-24T10:13:47.768Z,31.13
2019-02-24T10:14:47.977Z,30.7
2019-02-24T10:15:47.855Z,29.18
2019-02-24T10:16:47.718Z,29.59
2019-02-24T10:17:48.591Z,30.17
2019-02-24T10:18:47.868Z,29.13
2019-02-24T10:19:48.120Z,29.5
2019-02-24T10:20:49.339Z,29.09
2019-02-24T10:21:47.885Z,29.92
2019-02-24T10:22:47.790Z,30.36
2019-02-24T10:23:49.606Z,29.79
2019-02-24T10:24:47.720Z,29.99
2019-02-24T10:25:48.360Z,30.55
2019-02-24T10:26:47.766Z,31.56
2019-02-24T10:27:47.816Z,30.09
2019-02-24T10:28:48.087Z,31.25
2019-02-24T10:29:47.800Z,30.35
2019-02-24T10:30:48.089Z,30.83
2019-02-24T10:31:47.996Z,30.69
2019-02-24T10:32:48.059Z,30.85
2019-02-24T10:33:48.264Z,30.97
2019-02-24T10:34:47.836Z,30.8
2019-02-24T10:35:48.031Z,30.66
2019-02-24T10:36:47.707Z,31.22
2019-02-24T10:37:48.044Z,29.87
2019-02-24T10:38:48.142Z,29.87
2019-02-24T10:39:48.570Z,30.06
2019-02-24T10:40:48.057Z,30.48
2019-02-24T10:41:47.806Z,29.61
2019-02-24T10:42:49.543Z,30.18
2019-02-24T10:43:48.273Z,30.5
2019-02-24T10:44:48.073Z,29.76
2019-02-24T10:45:47.735Z,29.72
2019-02-24T10:46:47.826Z,30.01
2019-02-24T10:47:47.834Z,29.63
2019-02-24T10:48:48.028Z,29.74
2019-02-24T10:49:47.951Z,29.4
2019-02-24T10:50:48.729Z,28.95
2019-02-24T10:51:47.755Z,29.43
2019-02-24T10:52:47.762Z,29.55
2019-02-24T10:53:49.516Z,29.45
2019-02-24T10:54:48.207Z,29.43
2019-02-24T10:55:48.047Z,29.21
2019-02-24T10:56:47.749Z,29.16
2019-02-24T10:57:47.862Z,29.7
2019-02-24T10:58:47.646Z,29.08
2019-02-24T10:59:48.396Z,29.45
2019-02-24T11:00:47.679Z,29.54
2019-02-24T11:01:48.807Z,29.21
2019-02-24T11:02:47.688Z,28.42
2019-02-24T11:03:48.106Z,28.69
2019-02-24T11:04:49.162Z,29.19
2019-02-24T11:05:49.511Z,29.21
2019-02-24T11:06:49.517Z,30.16
2019-02-24T11:07:47.756Z,28.66
2019-02-24T11:08:47.938Z,28.16
2019-02-24T11:09:47.663Z,28.47
2019-02-24T11:10:47.766Z,28.94
2019-02-24T11:11:48.054Z,29.17
2019-02-24T11:12:47.928Z,29.24
2019-02-24T11:13:47.863Z,27.82
2019-02-24T11:14:47.723Z,28.53
2019-02-24T11:15:47.687Z,28.23
2019-02-24T11:16:48.431Z,28.09
2019-02-24T11:17:47.722Z,28.06
2019-02-24T11:18:47.695Z,28.9
2019-02-24T11:19:47.695Z,28.12
2019-02-24T11:20:47.807Z,28.72
2019-02-24T11:21:47.624Z,27.08
2019-02-24T11:22:48.551Z,27.53
2019-02-24T11:23:47.863Z,27.65
2019-02-24T11:24:47.951Z,27.88
2019-02-24T11:25:47.629Z,28.44
2019-02-24T11:26:48.178Z,27.87
2019-02-24T11:27:48.374Z,27.61
2019-02-24T11:28:48.006Z,27.33
2019-02-24T11:29:47.779Z,27.09
2019-02-24T11:30:48.665Z,26.68
2019-02-24T11:31:49.561Z,26.84
2019-02-24T11:32:49.550Z,26.85
2019-02-24T11:33:47.650Z,27.44
2019-02-24T11:34:48.121Z,28.23
2019-02-24T11:35:48.489Z,26.71
2019-02-24T11:36:48.161Z,27.32
2019-02-24T11:37:47.631Z,27.67
2019-02-24T11:38:47.635Z,27.04
2019-02-24T11:39:47.650Z,26.51
2019-02-24T11:40:47.680Z,27.01
2019-02-24T11:41:47.876Z,25.99
2019-02-24T11:42:47.631Z,25.71
2019-02-24T11:43:47.763Z,25.78
2019-02-24T11:44:47.967Z,26.97
2019-02-24T11:45:47.806Z,26.65
2019-02-24T11:46:48.395Z,26.63
2019-02-24T11:47:48.622Z,25.28
2019-02-24T11:48:48.862Z,25.61
2019-02-24T11:49:47.860Z,26.42
2019-02-24T11:50:48.150Z,26.42
2019-02-24T11:51:47.826Z,26.28
2019-02-24T11:52:47.707Z,26.07
2019-02-24T11:53:47.675Z,26.07
2019-02-24T11:54:47.733Z,26.06
2019-02-24T11:55:48.089Z,26.47
2019-02-24T11:56:47.831Z,26.42
2019-02-24T11:57:47.798Z,26.83
2019-02-24T11:58:47.792Z,25.05
2019-02-24T11:59:49.447Z,24.64
2019-02-24T12:00:47.762Z,24.52
2019-02-24T12:01:48.061Z,24.88
2019-02-24T12:02:48.745Z,25.01
2019-02-24T12:03:47.571Z,24.77
2019-02-24T12:04:47.659Z,23.71
2019-02-24T12:05:47.941Z,23.85
2019-02-24T12:06:48.856Z,24
2019-02-24T12:07:47.580Z,24.46
2019-02-24T12:08:47.614Z,23.59
2019-02-24T12:09:47.755Z,23.77
2019-02-24T12:10:48.090Z,22.98
2019-02-24T12:11:48.762Z,22.92
2019-02-24T12:12:47.562Z,23.81
2019-02-24T12:13:47.801Z,23.47
2019-02-24T12:14:48.179Z,23.08
2019-02-24T12:15:47.631Z,23.36
2019-02-24T12:16:47.624Z,24.46
2019-02-24T12:17:47.621Z,24.71
2019-02-24T12:18:48.022Z,24.99
2019-02-24T12:19:48.247Z,24.93
2019-02-24T12:20:47.638Z,25.6
2019-02-24T12:21:47.674Z,26.2
2019-02-24T12:22:47.614Z,25.87
2019-02-24T12:23:47.694Z,25.44
2019-02-24T12:24:47.722Z,25.65
2019-02-24T12:25:47.732Z,25.27
2019-02-24T12:26:47.581Z,27.01
2019-02-24T12:27:49.391Z,27.13
2019-02-24T12:28:48.014Z,26.81
2019-02-24T12:29:49.492Z,25.44
2019-02-24T12:30:47.565Z,25.57
2019-02-24T12:31:57.006Z,26.11
2019-02-24T12:32:47.675Z,26.04
2019-02-24T12:33:48.199Z,24.19
2019-02-24T12:34:47.676Z,25.1
2019-02-24T12:35:48.422Z,25.17
2019-02-24T12:36:47.517Z,25.73
2019-02-24T12:37:47.621Z,25.7
2019-02-24T12:38:48.414Z,24.95
2019-02-24T12:39:49.366Z,25.35
2019-02-24T12:40:47.561Z,25.09
2019-02-24T12:41:47.431Z,25.15
2019-02-24T12:42:47.350Z,25.26
2019-02-24T12:43:47.361Z,25.19
2019-02-24T12:44:47.615Z,25.24
2019-02-24T12:45:47.807Z,25.44
2019-02-24T12:46:48.083Z,25.07
2019-02-24T12:47:47.557Z,25.42
2019-02-24T12:48:47.695Z,25.3
2019-02-24T12:49:48.000Z,24.49
2019-02-24T12:50:47.731Z,24.9
2019-02-24T12:51:47.709Z,25.64
2019-02-24T12:52:48.020Z,24.84
2019-02-24T12:53:47.525Z,24.68
2019-02-24T12:54:49.345Z,25.12
2019-02-24T12:55:48.178Z,25.08